Time;durP1;ratioP1;P1;durP2;ratioP2;P2;SDS_P1;SDS_P2;PMS_P1;PMS_P2;Temp;Humidity;BMP_temperature;BMP_pressure;BME280_temperature;BME280_humidity;BME280_pressure;Samples;Min_cycle;Max_cycle;Signal;HPM_P1;HPM_P2
2021/05/04 00:00:45;;;;;;;5.20;3.37;;;12.20;58.40;;;;;;5050325;28;20124;-84
2021/05/04 00:03:10;;;;;;;4.73;2.60;;;12.20;58.30;;;;;;5052355;28;20140;-84
2021/05/04 00:05:36;;;;;;;4.57;2.77;;;12.20;58.40;;;;;;5050340;28;20053;-84
2021/05/04 00:08:02;;;;;;;5.17;2.67;;;12.20;58.50;;;;;;5052192;28;20377;-84
2021/05/04 00:10:28;;;;;;;7.00;2.47;;;12.20;58.50;;;;;;5049679;28;20025;-84
2021/05/04 00:12:53;;;;;;;7.53;2.83;;;12.20;58.60;;;;;;5050559;28;20394;-85
2021/05/04 00:15:19;;;;;;;4.07;2.67;;;12.20;58.50;;;;;;5050700;28;20029;-85
2021/05/04 00:17:45;;;;;;;5.93;2.50;;;12.20;58.60;;;;;;5050451;28;20393;-84
2021/05/04 00:20:11;;;;;;;5.10;2.80;;;12.20;58.60;;;;;;5051471;28;20525;-84
2021/05/04 00:22:36;;;;;;;5.03;2.47;;;12.20;58.50;;;;;;5050170;28;20531;-84
2021/05/04 00:25:03;;;;;;;5.80;2.77;;;12.20;58.70;;;;;;5050647;28;20115;-85
2021/05/04 00:27:28;;;;;;;4.03;2.43;;;12.20;58.80;;;;;;5050067;28;20102;-84
2021/05/04 00:29:54;;;;;;;4.80;2.20;;;12.20;58.90;;;;;;5049834;28;20029;-84
2021/05/04 00:32:20;;;;;;;4.67;2.43;;;12.20;58.80;;;;;;5050325;28;20029;-86
2021/05/04 00:34:45;;;;;;;4.23;2.40;;;12.20;58.50;;;;;;5049593;28;20037;-85
2021/05/04 00:37:11;;;;;;;4.63;2.43;;;12.20;58.60;;;;;;5038400;28;20041;-84
2021/05/04 00:39:37;;;;;;;5.87;2.80;;;12.20;58.70;;;;;;5038078;28;20040;-84
2021/05/04 00:42:04;;;;;;;6.63;2.40;;;12.20;59.10;;;;;;5038889;28;20021;-86
2021/05/04 00:44:30;;;;;;;4.70;2.37;;;12.20;58.60;;;;;;5036565;28;20026;-86
2021/05/04 00:46:56;;;;;;;3.80;2.23;;;12.20;58.70;;;;;;5038595;28;20470;-84
2021/05/04 00:49:22;;;;;;;3.47;2.03;;;12.20;58.70;;;;;;5037872;28;20021;-84
2021/05/04 00:51:52;;;;;;;4.13;2.30;;;12.20;58.50;;;;;;5037151;28;20028;-85
2021/05/04 00:54:19;;;;;;;6.83;2.40;;;12.20;58.60;;;;;;5038300;28;20030;-86
2021/05/04 00:56:45;;;;;;;3.37;1.97;;;12.20;58.70;;;;;;5037887;28;20057;-84
2021/05/04 00:59:12;;;;;;;4.60;2.13;;;12.20;58.60;;;;;;5035486;28;20042;-84
2021/05/04 01:01:38;;;;;;;4.57;2.10;;;12.20;58.40;;;;;;5036494;28;20026;-84
2021/05/04 01:04:06;;;;;;;4.80;2.03;;;12.20;58.60;;;;;;5036354;28;20053;-84
2021/05/04 01:06:32;;;;;;;4.85;2.80;;;12.20;58.60;;;;;;5036191;28;20033;-85
2021/05/04 01:08:58;;;;;;;3.67;2.00;;;12.30;58.40;;;;;;5035994;28;20072;-84
2021/05/04 01:11:24;;;;;;;4.77;2.17;;;12.30;58.40;;;;;;5035872;28;20231;-84
2021/05/04 01:13:51;;;;;;;4.13;1.80;;;12.30;58.30;;;;;;5036109;28;20029;-84
2021/05/04 01:16:18;;;;;;;4.67;2.07;;;12.30;58.20;;;;;;5037344;28;20033;-86
2021/05/04 01:18:43;;;;;;;3.50;2.30;;;12.30;58.20;;;;;;5036214;28;20036;-84
2021/05/04 01:21:09;;;;;;;8.93;1.90;;;12.30;58.10;;;;;;5035861;28;20026;-85
2021/05/04 01:23:35;;;;;;;3.80;1.63;;;12.30;58.00;;;;;;5036239;28;20026;-85
2021/05/04 01:26:02;;;;;;;4.87;2.20;;;12.40;57.80;;;;;;5036079;28;20108;-84
2021/05/04 01:28:28;;;;;;;6.60;2.33;;;12.30;57.80;;;;;;5035921;28;20021;-85
2021/05/04 01:30:53;;;;;;;7.07;1.80;;;12.30;57.90;;;;;;5035318;28;20029;-84
2021/05/04 01:33:19;;;;;;;3.10;1.80;;;12.40;58.00;;;;;;5036752;28;20080;-84
2021/05/04 01:35:45;;;;;;;2.60;1.50;;;12.40;58.00;;;;;;5035735;28;20037;-85
2021/05/04 01:38:10;;;;;;;4.33;1.50;;;12.40;57.80;;;;;;5036084;28;20030;-84
2021/05/04 01:40:36;;;;;;;7.20;1.47;;;12.40;57.60;;;;;;5035685;28;20362;-84
2021/05/04 01:43:02;;;;;;;5.50;1.50;;;12.40;57.70;;;;;;5035609;28;20029;-84
2021/05/04 01:45:27;;;;;;;5.20;1.80;;;12.50;57.40;;;;;;5036512;28;20160;-86
2021/05/04 01:47:53;;;;;;;6.23;1.43;;;12.50;57.00;;;;;;5034699;28;20124;-85
2021/05/04 01:50:19;;;;;;;25.73;2.17;;;12.50;56.40;;;;;;5035674;28;20056;-85
2021/05/04 01:52:44;;;;;;;25.07;2.27;;;12.50;55.40;;;;;;5037056;28;20439;-83
2021/05/04 01:55:11;;;;;;;29.23;3.37;;;12.60;54.50;;;;;;5037296;28;20029;-84
2021/05/04 01:57:37;;;;;;;20.77;2.10;;;12.60;54.60;;;;;;5035590;28;20091;-86
2021/05/04 02:00:08;;;;;;;24.10;2.03;;;12.60;55.80;;;;;;5036630;28;20029;-86
2021/05/04 02:02:35;;;;;;;9.77;1.60;;;12.60;57.90;;;;;;5037093;28;20029;-85
2021/05/04 02:05:01;;;;;;;10.53;2.03;;;12.50;58.30;;;;;;5035894;28;20037;-84
2021/05/04 02:07:27;;;;;;;21.17;2.50;;;12.50;57.80;;;;;;5034726;28;20025;-85
2021/05/04 02:09:53;;;;;;;24.93;2.10;;;12.40;59.10;;;;;;5035209;28;20029;-84
2021/05/04 02:12:18;;;;;;;14.97;2.00;;;12.30;61.10;;;;;;5035423;28;20444;-83
2021/05/04 02:14:44;;;;;;;16.40;1.93;;;12.10;65.70;;;;;;5035882;28;20116;-85
2021/05/04 02:17:10;;;;;;;18.27;2.40;;;11.90;65.70;;;;;;5036807;28;20116;-86
2021/05/04 02:19:39;;;;;;;8.73;2.17;;;11.70;69.50;;;;;;5034694;28;20033;-85
2021/05/04 02:22:05;;;;;;;10.30;2.88;;;11.50;72.00;;;;;;5035244;28;20025;-86
2021/05/04 02:24:31;;;;;;;11.33;2.60;;;11.30;74.40;;;;;;5036752;28;20025;-84
2021/05/04 02:26:56;;;;;;;8.83;3.30;;;11.20;76.60;;;;;;5035498;28;20493;-86
2021/05/04 02:29:22;;;;;;;6.43;2.13;;;11.20;78.60;;;;;;5036630;28;20540;-85
2021/05/04 02:31:47;;;;;;;7.90;2.23;;;11.00;79.50;;;;;;5036713;28;20025;-84
2021/05/04 02:34:13;;;;;;;8.10;2.10;;;11.00;82.30;;;;;;5037069;28;20030;-86
2021/05/04 02:36:39;;;;;;;7.00;2.47;;;10.90;82.60;;;;;;5035163;28;20120;-84
2021/05/04 02:39:07;;;;;;;9.83;2.73;;;10.80;83.20;;;;;;5034700;28;20037;-85
2021/05/04 02:41:35;;;;;;;4.97;2.40;;;10.80;85.20;;;;;;5036394;28;20052;-87
2021/05/04 02:44:02;;;;;;;6.60;2.03;;;10.70;85.30;;;;;;5035152;28;20068;-85
2021/05/04 02:46:30;;;;;;;12.13;2.27;;;10.60;85.70;;;;;;5035093;28;20470;-84
2021/05/04 02:48:57;;;;;;;2.50;1.20;;;10.50;87.10;;;;;;5034345;28;20116;-86
2021/05/04 02:51:23;;;;;;;3.60;1.40;;;10.60;89.30;;;;;;5035914;28;20030;-85
2021/05/04 02:53:49;;;;;;;2.67;1.30;;;10.50;89.10;;;;;;5035605;28;20116;-86
2021/05/04 02:56:15;;;;;;;2.03;1.23;;;10.50;88.50;;;;;;5036789;28;20053;-86
2021/05/04 02:58:40;;;;;;;7.27;1.30;;;10.40;89.70;;;;;;5034268;28;20080;-85
2021/05/04 03:01:06;;;;;;;3.00;1.30;;;10.40;90.60;;;;;;5034509;28;20057;-84
2021/05/04 03:03:35;;;;;;;2.93;1.30;;;10.30;90.10;;;;;;5035172;28;20035;-84
2021/05/04 03:06:02;;;;;;;5.03;1.60;;;10.30;90.00;;;;;;5035115;28;20029;-85
2021/05/04 03:08:29;;;;;;;2.20;0.97;;;10.30;90.70;;;;;;5036569;28;20032;-85
2021/05/04 03:10:54;;;;;;;4.23;1.33;;;10.20;90.20;;;;;;5034997;28;20536;-85
2021/05/04 03:13:25;;;;;;;5.83;1.50;;;10.20;91.00;;;;;;5036414;28;20017;-84
2021/05/04 03:15:51;;;;;;;10.03;1.40;;;10.20;91.10;;;;;;5036931;28;20448;-85
2021/05/04 03:18:17;;;;;;;6.70;1.50;;;10.20;91.10;;;;;;5035236;28;20018;-86
2021/05/04 03:20:44;;;;;;;4.07;1.40;;;10.10;90.70;;;;;;5036827;28;20052;-84
2021/05/04 03:23:10;;;;;;;3.10;1.30;;;10.10;91.20;;;;;;5037513;28;20029;-87
2021/05/04 03:25:36;;;;;;;2.07;1.20;;;10.00;91.50;;;;;;5034609;28;20022;-85
2021/05/04 03:28:01;;;;;;;6.10;1.60;;;10.00;91.20;;;;;;5036534;28;20486;-85
2021/05/04 03:30:27;;;;;;;3.00;1.80;;;10.00;91.60;;;;;;5034319;28;20117;-87
2021/05/04 03:32:53;;;;;;;2.93;1.27;;;9.90;91.10;;;;;;5036711;28;20029;-84
2021/05/04 03:35:19;;;;;;;3.83;1.40;;;10.00;92.00;;;;;;5035201;28;20026;-84
2021/05/04 03:37:46;;;;;;;5.03;1.73;;;9.90;91.70;;;;;;5035201;28;20421;-86
2021/05/04 03:40:12;;;;;;;3.27;1.50;;;9.90;92.00;;;;;;5034812;28;20029;-86
2021/05/04 03:42:37;;;;;;;3.10;1.77;;;9.90;92.00;;;;;;5036359;28;20032;-87
2021/05/04 03:45:05;;;;;;;6.90;1.40;;;9.90;92.50;;;;;;5035958;28;20029;-85
2021/05/04 03:47:30;;;;;;;3.67;1.40;;;9.80;92.30;;;;;;5034607;28;20033;-85
2021/05/04 03:49:56;;;;;;;4.23;1.53;;;9.80;93.10;;;;;;5034880;28;20068;-86
2021/05/04 03:52:22;;;;;;;2.77;1.63;;;9.70;93.00;;;;;;5035398;28;20094;-85
2021/05/04 03:54:47;;;;;;;3.40;1.40;;;9.70;92.90;;;;;;5034947;28;20033;-84
2021/05/04 03:57:13;;;;;;;4.33;1.50;;;9.70;92.80;;;;;;5034674;28;20087;-85
2021/05/04 03:59:40;;;;;;;3.00;1.53;;;9.70;92.50;;;;;;5036207;28;20478;-86
2021/05/04 04:02:05;;;;;;;4.23;1.60;;;9.60;92.40;;;;;;5036821;28;20025;-86
2021/05/04 04:04:31;;;;;;;2.83;1.50;;;9.60;92.10;;;;;;5037216;28;20096;-85
2021/05/04 04:06:57;;;;;;;6.63;1.80;;;9.60;92.50;;;;;;5036003;28;20084;-86
2021/05/04 04:09:22;;;;;;;5.00;1.80;;;9.60;92.20;;;;;;5035876;28;20044;-86
2021/05/04 04:11:48;;;;;;;3.97;1.60;;;9.70;92.40;;;;;;5039473;28;20022;-87
2021/05/04 04:14:14;;;;;;;3.93;1.60;;;9.60;92.00;;;;;;5040474;28;20504;-85
2021/05/04 04:16:39;;;;;;;6.60;1.90;;;9.70;92.20;;;;;;5038991;28;20034;-84
2021/05/04 04:19:05;;;;;;;4.17;1.80;;;9.70;91.90;;;;;;5040082;28;20029;-86
2021/05/04 04:21:31;;;;;;;7.20;1.73;;;9.70;91.70;;;;;;5040621;28;20029;-85
2021/05/04 04:23:56;;;;;;;4.73;1.70;;;9.70;91.80;;;;;;5040180;28;20029;-85
2021/05/04 04:26:25;;;;;;;4.70;1.70;;;9.70;91.60;;;;;;5040554;28;20061;-84
2021/05/04 04:28:50;;;;;;;2.78;1.65;;;9.70;91.70;;;;;;5038792;28;20112;-86
2021/05/04 04:31:16;;;;;;;3.73;1.70;;;9.80;91.80;;;;;;5038201;28;20454;-86
2021/05/04 04:33:42;;;;;;;4.13;1.60;;;9.80;91.60;;;;;;5040031;28;20021;-86
2021/05/04 04:36:07;;;;;;;4.37;1.57;;;9.80;91.30;;;;;;5039942;28;20498;-85
2021/05/04 04:38:33;;;;;;;4.40;1.47;;;9.80;91.30;;;;;;5038326;28;20030;-86
2021/05/04 04:40:58;;;;;;;4.80;1.60;;;9.80;91.20;;;;;;5038300;28;20030;-85
2021/05/04 04:43:24;;;;;;;1.87;1.20;;;9.80;91.20;;;;;;5038883;28;20032;-85
2021/05/04 04:45:50;;;;;;;3.27;1.47;;;9.80;91.10;;;;;;5038409;28;20022;-86
2021/05/04 04:48:15;;;;;;;3.50;1.60;;;9.80;91.10;;;;;;5038864;28;20029;-85
2021/05/04 04:50:41;;;;;;;3.87;1.33;;;9.90;91.20;;;;;;5039530;28;20025;-86
2021/05/04 04:53:07;;;;;;;2.90;1.60;;;9.80;90.90;;;;;;5039547;28;20053;-86
2021/05/04 04:55:32;;;;;;;3.70;1.23;;;9.90;90.80;;;;;;5038780;28;20533;-85
2021/05/04 04:57:59;;;;;;;5.17;1.20;;;9.90;90.70;;;;;;5038897;28;20037;-86
2021/05/04 05:00:25;;;;;;;2.53;1.20;;;9.90;90.70;;;;;;5039614;28;20056;-85
2021/05/04 05:02:51;;;;;;;3.40;1.30;;;10.00;90.40;;;;;;5039522;28;20474;-84
2021/05/04 05:05:16;;;;;;;2.50;1.20;;;10.00;90.40;;;;;;5038755;28;20026;-86
2021/05/04 05:07:42;;;;;;;4.90;1.63;;;10.00;90.60;;;;;;5038254;28;20053;-86
2021/05/04 05:10:09;;;;;;;3.67;1.30;;;10.00;90.80;;;;;;5038578;28;20378;-86
2021/05/04 05:12:35;;;;;;;3.97;1.50;;;10.00;90.50;;;;;;5039862;28;20047;-85
2021/05/04 05:15:02;;;;;;;3.53;1.70;;;10.00;90.40;;;;;;5037336;28;20440;-86
2021/05/04 05:17:29;;;;;;;3.57;1.20;;;10.00;90.90;;;;;;5034065;28;20049;-84
2021/05/04 05:19:56;;;;;;;2.83;1.40;;;10.00;90.50;;;;;;5032577;28;20033;-86
2021/05/04 05:22:21;;;;;;;3.23;1.20;;;10.10;90.70;;;;;;5035294;28;20510;-84
2021/05/04 05:24:47;;;;;;;3.00;1.30;;;10.00;90.70;;;;;;5036624;28;20018;-86
2021/05/04 05:27:13;;;;;;;4.67;1.83;;;10.10;90.70;;;;;;5036492;28;20021;-87
2021/05/04 05:29:39;;;;;;;5.03;2.00;;;10.00;90.50;;;;;;5034194;28;20094;-86
2021/05/04 05:32:04;;;;;;;2.43;1.50;;;10.00;90.90;;;;;;5034597;28;20024;-85
2021/05/04 05:34:30;;;;;;;3.30;1.70;;;10.00;91.30;;;;;;5034752;28;20025;-85
2021/05/04 05:36:56;;;;;;;5.93;1.40;;;10.00;91.80;;;;;;5035384;28;20029;-86
2021/05/04 05:39:23;;;;;;;2.90;1.37;;;9.90;92.20;;;;;;5033965;28;20021;-86
2021/05/04 05:41:49;;;;;;;4.50;1.53;;;9.80;92.50;;;;;;5036332;28;20497;-85
2021/05/04 05:44:14;;;;;;;3.60;1.30;;;9.80;92.90;;;;;;5034318;28;20114;-84
2021/05/04 05:46:41;;;;;;;2.83;1.27;;;9.80;92.90;;;;;;5035020;28;20025;-86
2021/05/04 05:49:07;;;;;;;2.60;1.43;;;9.90;93.00;;;;;;5032728;28;20137;-85
2021/05/04 05:51:32;;;;;;;5.13;1.53;;;9.80;92.80;;;;;;5032873;28;20017;-85
2021/05/04 05:53:58;;;;;;;3.30;1.43;;;9.80;92.30;;;;;;5033911;28;20029;-86
2021/05/04 05:56:24;;;;;;;5.77;1.70;;;9.90;92.30;;;;;;5032528;28;20026;-85
2021/05/04 05:58:49;;;;;;;4.10;1.80;;;9.90;92.10;;;;;;5032250;28;20026;-85
2021/05/04 06:01:16;;;;;;;2.43;1.37;;;9.90;92.00;;;;;;5032010;28;20034;-86
2021/05/04 06:03:41;;;;;;;4.63;1.50;;;10.00;91.50;;;;;;5031974;28;20034;-86
2021/05/04 06:06:07;;;;;;;4.07;1.50;;;10.00;91.60;;;;;;5033299;28;20496;-85
2021/05/04 06:08:32;;;;;;;5.37;1.60;;;10.00;91.50;;;;;;5033107;28;20017;-86
2021/05/04 06:10:58;;;;;;;4.10;1.30;;;10.10;91.40;;;;;;5031201;28;20025;-86
2021/05/04 06:13:24;;;;;;;2.63;1.20;;;10.10;91.30;;;;;;5032130;28;20116;-86
2021/05/04 06:15:50;;;;;;;4.47;1.50;;;10.10;91.20;;;;;;5031847;28;20022;-86
2021/05/04 06:18:15;;;;;;;5.00;1.60;;;10.10;91.30;;;;;;5031874;28;20117;-86
2021/05/04 06:20:41;;;;;;;3.20;1.40;;;10.10;91.50;;;;;;5031226;28;20083;-85
2021/05/04 06:23:08;;;;;;;2.83;1.13;;;10.20;91.20;;;;;;5031741;28;20033;-86
2021/05/04 06:25:34;;;;;;;7.33;2.23;;;10.20;91.00;;;;;;5031774;28;20079;-85
2021/05/04 06:28:06;;;;;;;2.80;1.20;;;10.20;90.90;;;;;;5031656;28;20045;-86
2021/05/04 06:30:35;;;;;;;15.07;1.70;;;10.30;90.90;;;;;;5032254;28;20051;-86
2021/05/04 06:33:02;;;;;;;;;;;10.30;90.80;;;;;;5031294;28;20025;-86
2021/05/04 06:35:28;;;;;;;6.17;1.50;;;10.30;91.00;;;;;;5031452;28;19912;-85
2021/05/04 06:37:54;;;;;;;1.77;1.17;;;10.40;91.10;;;;;;5031390;28;20402;-85
2021/05/04 06:40:20;;;;;;;3.30;1.50;;;10.40;91.40;;;;;;5030785;28;20065;-85
2021/05/04 06:42:45;;;;;;;3.87;1.60;;;10.40;91.70;;;;;;5031150;28;20565;-86
2021/05/04 06:45:11;;;;;;;2.90;1.70;;;10.40;92.40;;;;;;5031186;28;20030;-86
2021/05/04 06:47:37;;;;;;;3.97;1.80;;;10.40;93.00;;;;;;5031219;28;20116;-85
2021/05/04 06:50:04;;;;;;;3.47;1.60;;;10.40;93.10;;;;;;5031842;28;20092;-86
2021/05/04 06:52:30;;;;;;;4.67;1.60;;;10.40;93.60;;;;;;5031043;28;20483;-85
2021/05/04 06:54:56;;;;;;;3.90;1.47;;;10.30;93.30;;;;;;5030921;28;20060;-86
2021/05/04 06:57:21;;;;;;;2.77;1.53;;;10.30;93.20;;;;;;5030929;28;20139;-86
2021/05/04 06:59:47;;;;;;;4.60;1.77;;;10.30;93.70;;;;;;5031965;28;20482;-85
2021/05/04 07:02:12;;;;;;;3.10;1.37;;;10.30;94.00;;;;;;5030890;28;20032;-85
2021/05/04 07:04:38;;;;;;;4.03;1.63;;;10.30;94.00;;;;;;5030847;28;20029;-86
2021/05/04 07:07:04;;;;;;;5.70;1.60;;;10.20;94.20;;;;;;5030679;28;20146;-86
2021/05/04 07:09:30;;;;;;;4.73;1.60;;;10.30;94.40;;;;;;5030420;28;20536;-86
2021/05/04 07:11:56;;;;;;;4.20;1.50;;;10.30;94.20;;;;;;5030898;28;20026;-85
2021/05/04 07:14:21;;;;;;;3.60;1.40;;;10.20;94.90;;;;;;5031224;28;20033;-86
2021/05/04 07:16:47;;;;;;;3.10;1.63;;;10.20;94.90;;;;;;5032289;28;20052;-86
2021/05/04 07:19:13;;;;;;;5.40;2.23;;;10.20;94.80;;;;;;5031556;28;20104;-85
2021/05/04 07:21:39;;;;;;;4.50;1.50;;;10.20;95.10;;;;;;5030748;28;20040;-85
2021/05/04 07:24:05;;;;;;;4.37;1.70;;;10.20;95.10;;;;;;5032031;28;20382;-86
2021/05/04 07:26:32;;;;;;;6.03;3.00;;;10.10;95.40;;;;;;5030715;28;20382;-86
2021/05/04 07:28:58;;;;;;;6.37;2.20;;;10.10;95.60;;;;;;5030076;28;20104;-86
2021/05/04 07:31:25;;;;;;;7.17;2.97;;;10.10;95.30;;;;;;5030492;28;20502;-86
2021/05/04 07:33:50;;;;;;;5.20;2.23;;;10.10;95.70;;;;;;5030892;28;20108;-85
2021/05/04 07:36:16;;;;;;;4.83;2.00;;;10.10;95.80;;;;;;5030419;28;20179;-86
2021/05/04 07:38:41;;;;;;;2.93;1.47;;;10.10;96.00;;;;;;5031897;28;20072;-86
2021/05/04 07:41:08;;;;;;;5.73;2.03;;;10.10;96.00;;;;;;5031445;28;20075;-85
2021/05/04 07:43:35;;;;;;;5.23;1.60;;;10.10;95.90;;;;;;5030483;28;20490;-86
2021/05/04 07:46:01;;;;;;;3.07;1.60;;;10.10;95.50;;;;;;5032554;28;20028;-86
2021/05/04 07:48:26;;;;;;;5.17;1.80;;;10.10;95.50;;;;;;5035420;28;20017;-85
2021/05/04 07:50:52;;;;;;;3.07;1.40;;;10.20;96.00;;;;;;5034734;28;20040;-86
2021/05/04 07:53:18;;;;;;;3.90;1.53;;;10.20;95.60;;;;;;5035267;28;20017;-85
2021/05/04 07:55:43;;;;;;;4.03;1.60;;;10.30;95.20;;;;;;5037019;28;20053;-84
2021/05/04 07:58:09;;;;;;;4.37;1.30;;;10.30;95.10;;;;;;5038150;28;20465;-85
2021/05/04 08:00:35;;;;;;;4.03;1.30;;;10.30;94.90;;;;;;5037838;28;20497;-86
2021/05/04 08:03:01;;;;;;;4.20;1.73;;;10.30;94.70;;;;;;5035928;28;20029;-86
2021/05/04 08:05:26;;;;;;;2.97;1.20;;;10.40;94.60;;;;;;5035668;28;20063;-84
2021/05/04 08:07:52;;;;;;;2.47;1.30;;;10.30;94.60;;;;;;5035982;28;20454;-85
2021/05/04 08:10:18;;;;;;;3.53;1.50;;;10.30;95.20;;;;;;5034962;28;20382;-85
2021/05/04 08:12:43;;;;;;;5.57;1.50;;;10.20;95.30;;;;;;5035540;28;20057;-86
2021/05/04 08:15:17;;;;;;;2.03;1.30;;;10.20;95.20;;;;;;5036842;28;20437;-85
2021/05/04 08:17:48;;;;;;;4.60;1.60;;;10.20;95.40;;;;;;5035128;28;20049;-85
2021/05/04 08:20:15;;;;;;;3.93;1.43;;;10.20;95.40;;;;;;5034506;28;20550;-85
2021/05/04 08:22:40;;;;;;;7.93;2.33;;;10.30;95.80;;;;;;5035024;28;20036;-85
2021/05/04 08:25:06;;;;;;;2.87;1.60;;;10.20;95.60;;;;;;5035078;28;20022;-84
2021/05/04 08:27:32;;;;;;;7.10;1.87;;;10.30;96.00;;;;;;5035228;28;20025;-85
2021/05/04 08:29:58;;;;;;;4.53;1.70;;;10.30;96.10;;;;;;5034265;28;20394;-86
2021/05/04 08:32:23;;;;;;;2.73;1.23;;;10.30;95.70;;;;;;5035067;28;20030;-85
2021/05/04 08:34:49;;;;;;;5.20;1.80;;;10.40;95.70;;;;;;5034961;28;20021;-85
2021/05/04 08:37:15;;;;;;;4.03;1.30;;;10.40;95.00;;;;;;5035566;28;20088;-84
2021/05/04 08:39:40;;;;;;;4.57;1.43;;;10.40;95.30;;;;;;5034414;28;20462;-85
2021/05/04 08:42:06;;;;;;;5.13;1.63;;;10.40;94.80;;;;;;5035564;28;20051;-85
2021/05/04 08:44:34;;;;;;;5.53;1.50;;;10.50;94.90;;;;;;5035447;28;20057;-86
2021/05/04 08:47:02;;;;;;;4.27;1.47;;;10.50;94.70;;;;;;5034802;28;20056;-85
2021/05/04 08:49:28;;;;;;;6.53;1.37;;;10.60;94.80;;;;;;5034942;28;20021;-85
2021/05/04 08:51:55;;;;;;;2.80;1.20;;;10.60;93.90;;;;;;5036334;28;20032;-86
2021/05/04 08:54:21;;;;;;;4.53;1.60;;;10.70;94.00;;;;;;5036268;28;20029;-85
2021/05/04 08:56:47;;;;;;;5.33;1.60;;;10.80;93.50;;;;;;5034741;28;20466;-85
2021/05/04 08:59:13;;;;;;;5.37;1.40;;;10.90;93.40;;;;;;5034593;28;20033;-85
2021/05/04 09:01:39;;;;;;;4.43;1.77;;;11.00;93.60;;;;;;5034277;28;20025;-85
2021/05/04 09:04:11;;;;;;;6.77;2.50;;;11.00;94.10;;;;;;5034938;28;20513;-85
2021/05/04 09:06:46;;;;;;;9.40;2.67;;;11.00;94.30;;;;;;5033581;28;20021;-85
2021/05/04 09:09:29;;;;;;;3.90;1.90;;;11.10;95.20;;;;;;5033057;28;20029;-85
2021/05/04 09:22:41;;;;;;;7.37;2.70;;;10.90;96.90;;;;;;5032571;28;20179;-85
2021/05/04 09:25:34;;;;;;;3.73;1.63;;;10.80;96.20;;;;;;5033342;28;20052;-86
2021/05/04 09:28:11;;;;;;;4.07;1.90;;;10.80;96.30;;;;;;5034993;28;20034;-85
2021/05/04 09:30:37;;;;;;;5.57;2.27;;;10.80;95.70;;;;;;5035092;28;20060;-85
2021/05/04 09:33:08;;;;;;;4.67;1.93;;;10.80;96.00;;;;;;5035783;28;20080;-86
2021/05/04 09:35:35;;;;;;;6.07;1.60;;;10.80;96.30;;;;;;5034377;28;20029;-85
2021/05/04 09:38:05;;;;;;;4.70;1.50;;;10.80;96.30;;;;;;5035145;28;20080;-85
2021/05/04 09:40:34;;;;;;;6.57;2.10;;;10.90;96.30;;;;;;5034485;28;20037;-87
2021/05/04 09:43:28;;;;;;;9.35;2.13;;;10.90;96.00;;;;;;5034517;28;20208;-85
2021/05/04 09:45:56;;;;;;;11.83;2.77;;;10.90;95.00;;;;;;5034447;28;20482;-85
2021/05/04 09:48:22;;;;;;;7.10;2.03;;;11.00;94.70;;;;;;5036388;28;20029;-85
2021/05/04 09:51:09;;;;;;;13.93;3.73;;;11.10;94.00;;;;;;5033845;28;20029;-85
2021/05/04 09:53:44;;;;;;;5.87;1.80;;;11.20;93.80;;;;;;5034198;28;20021;-85
2021/05/04 09:56:12;;;;;;;7.90;2.30;;;11.40;92.30;;;;;;5032399;28;20079;-85
2021/05/04 09:58:46;;;;;;;9.63;2.13;;;11.50;92.40;;;;;;5032306;28;20033;-85
2021/05/04 10:01:17;;;;;;;10.67;1.93;;;11.60;92.10;;;;;;5033052;28;20091;-85
2021/05/04 10:03:45;;;;;;;9.73;1.83;;;11.60;92.10;;;;;;5033627;28;20025;-85
2021/05/04 10:06:12;;;;;;;8.80;1.40;;;11.70;91.90;;;;;;5033657;28;20017;-85
2021/05/04 10:08:39;;;;;;;7.27;1.77;;;11.70;91.60;;;;;;5032456;28;20363;-86
2021/05/04 10:11:07;;;;;;;11.60;1.77;;;11.80;91.00;;;;;;5031490;28;20385;-85
2021/05/04 10:13:35;;;;;;;13.73;2.03;;;11.80;90.20;;;;;;5032028;28;20018;-85
2021/05/04 10:16:02;;;;;;;12.50;2.30;;;11.90;90.20;;;;;;5033460;28;20018;-85
2021/05/04 10:18:29;;;;;;;11.37;1.97;;;11.90;90.00;;;;;;5031958;28;20022;-85
2021/05/04 10:20:57;;;;;;;8.47;2.07;;;12.00;89.70;;;;;;5032588;28;20148;-85
2021/05/04 10:23:24;;;;;;;19.43;1.73;;;12.10;88.90;;;;;;5031522;28;20049;-85
2021/05/04 10:25:52;;;;;;;9.03;2.03;;;12.20;86.50;;;;;;5033147;28;20022;-85
2021/05/04 10:28:19;;;;;;;6.10;1.70;;;12.10;85.90;;;;;;5032272;28;20048;-85
2021/05/04 10:30:45;;;;;;;8.03;1.73;;;12.10;87.30;;;;;;5032742;28;20026;-85
2021/05/04 10:33:30;;;;;;;7.17;1.60;;;12.10;85.90;;;;;;5036554;28;20021;-85
2021/05/04 10:35:56;;;;;;;12.47;2.50;;;12.00;89.30;;;;;;5034642;28;20437;-85
2021/05/04 10:38:22;;;;;;;13.30;2.43;;;11.80;92.30;;;;;;5032182;28;20091;-86
2021/05/04 10:41:00;;;;;;;9.17;1.80;;;11.40;95.20;;;;;;5032090;28;20029;-86
2021/05/04 10:43:28;;;;;;;10.23;1.70;;;11.00;96.10;;;;;;5033553;28;20501;-85
2021/05/04 10:45:56;;;;;;;8.00;1.80;;;10.70;96.20;;;;;;5033724;28;20021;-85
2021/05/04 10:48:45;;;;;;;11.93;2.67;;;10.70;96.50;;;;;;5032402;28;20500;-85
2021/05/04 10:51:16;;;;;;;8.50;2.28;;;10.70;96.40;;;;;;5032113;28;20283;-85
2021/05/04 10:53:56;;;;;;;10.80;1.77;;;10.80;95.70;;;;;;5032775;28;20445;-85
2021/05/04 10:56:33;;;;;;;7.47;1.80;;;10.90;94.50;;;;;;5032483;28;20068;-86
2021/05/04 10:58:59;;;;;;;11.17;1.93;;;10.90;94.00;;;;;;5031302;28;20033;-85
2021/05/04 11:01:25;;;;;;;11.47;2.30;;;11.00;94.20;;;;;;5033614;28;20022;-86
2021/05/04 11:03:55;;;;;;;8.70;1.67;;;11.10;93.30;;;;;;5032370;28;20022;-85
2021/05/04 11:06:24;;;;;;;13.13;2.13;;;11.10;90.90;;;;;;5031918;28;20417;-85
2021/05/04 11:08:49;;;;;;;11.07;2.15;;;11.20;91.40;;;;;;5032892;28;20155;-86
2021/05/04 11:11:26;;;;;;;7.87;1.73;;;11.30;89.20;;;;;;5031926;28;20510;-86
2021/05/04 11:13:53;;;;;;;8.60;2.00;;;11.40;89.90;;;;;;5032909;28;20123;-86
2021/05/04 11:16:45;;;;;;;17.57;2.80;;;11.50;88.80;;;;;;5031636;28;20026;-85
2021/05/04 11:19:44;;;;;;;8.77;1.80;;;11.60;87.10;;;;;;5030557;28;20034;-85
2021/05/04 11:22:14;;;;;;;9.40;1.40;;;11.80;87.70;;;;;;5026780;28;20071;-85
2021/05/04 11:24:41;;;;;;;15.53;2.17;;;11.90;82.00;;;;;;5033267;28;20029;-84
2021/05/04 11:27:12;;;;;;;8.40;1.60;;;12.00;84.60;;;;;;5031545;28;20026;-85
2021/05/04 11:29:39;;;;;;;11.80;2.03;;;12.10;80.80;;;;;;5030982;28;20029;-85
2021/05/04 11:32:20;;;;;;;11.37;2.13;;;12.20;80.70;;;;;;5031446;28;20029;-85
2021/05/04 11:34:47;;;;;;;8.33;1.47;;;12.20;80.30;;;;;;5033054;28;20104;-85
2021/05/04 11:37:39;;;;;;;13.10;1.40;;;12.30;78.80;;;;;;5033604;28;20048;-86
2021/05/04 11:40:09;;;;;;;10.03;2.27;;;12.30;78.00;;;;;;5033391;28;20032;-85
2021/05/04 11:42:42;;;;;;;13.10;1.50;;;12.30;78.00;;;;;;5031934;28;20109;-85
2021/05/04 11:45:14;;;;;;;10.23;1.90;;;12.20;78.00;;;;;;5031652;28;20509;-85
2021/05/04 11:47:53;;;;;;;7.90;1.60;;;12.10;77.60;;;;;;5032690;28;20021;-85
2021/05/04 11:50:43;;;;;;;8.35;1.50;;;11.90;76.70;;;;;;5031068;28;20107;-85
2021/05/04 11:53:15;;;;;;;11.40;1.90;;;11.90;77.50;;;;;;5026408;28;20083;-85
2021/05/04 11:55:56;;;;;;;12.40;1.80;;;11.90;78.40;;;;;;5031344;28;20025;-85
2021/05/04 11:58:24;;;;;;;12.93;1.93;;;12.00;78.40;;;;;;5031109;28;20040;-86
2021/05/04 12:00:59;;;;;;;9.67;2.17;;;12.10;76.30;;;;;;5030436;28;20026;-85
2021/05/04 12:03:24;;;;;;;13.13;2.07;;;12.10;76.60;;;;;;5031685;28;20030;-85
2021/05/04 12:05:50;;;;;;;8.53;1.87;;;12.20;76.40;;;;;;5030704;28;20017;-86
2021/05/04 12:08:16;;;;;;;8.27;1.80;;;12.20;74.90;;;;;;5030750;28;20025;-85
2021/05/04 12:10:47;;;;;;;9.60;1.80;;;12.20;76.20;;;;;;5030114;28;20029;-85
2021/05/04 12:13:21;;;;;;;11.23;1.97;;;12.20;76.10;;;;;;5031192;28;20029;-86
2021/05/04 12:15:49;;;;;;;11.00;1.80;;;12.10;77.60;;;;;;5030538;28;20413;-86
2021/05/04 12:18:21;;;;;;;8.97;1.80;;;12.10;77.00;;;;;;5030962;28;20549;-86
2021/05/04 12:20:53;;;;;;;12.73;2.67;;;12.10;79.50;;;;;;5030102;28;20199;-86
2021/05/04 12:23:27;;;;;;;12.60;1.70;;;12.10;76.40;;;;;;5030413;28;20437;-85
2021/05/04 12:26:03;;;;;;;9.70;2.13;;;12.10;76.30;;;;;;5030148;28;20556;-85
2021/05/04 12:28:35;;;;;;;6.80;2.00;;;12.10;76.00;;;;;;5030267;28;20025;-85
2021/05/04 12:31:06;;;;;;;11.80;1.83;;;12.10;76.70;;;;;;5029970;28;20044;-85
2021/05/04 12:33:34;;;;;;;13.00;1.83;;;12.10;76.10;;;;;;5033941;28;20021;-85
2021/05/04 12:36:06;;;;;;;12.67;1.77;;;12.00;75.70;;;;;;5033744;28;20025;-86
2021/05/04 12:41:23;;;;;;;16.00;1.63;;;12.00;76.00;;;;;;5035099;28;20022;-86
2021/05/04 12:44:25;;;;;;;10.33;1.60;;;12.00;75.40;;;;;;5033769;28;20397;-85
2021/05/04 12:47:21;;;;;;;10.37;1.60;;;12.00;74.30;;;;;;5033397;28;20028;-85
2021/05/04 12:49:47;;;;;;;12.93;2.37;;;12.00;74.30;;;;;;5031824;28;20390;-86
2021/05/04 12:52:18;;;;;;;9.37;1.70;;;12.10;73.70;;;;;;5034911;28;20100;-85
2021/05/04 12:54:45;;;;;;;10.67;1.63;;;12.10;73.40;;;;;;5035203;28;20024;-85
2021/05/04 12:57:26;;;;;;;14.33;1.90;;;12.30;73.50;;;;;;5033418;28;20033;-85
2021/05/04 12:59:53;;;;;;;9.40;1.90;;;12.40;73.50;;;;;;5032880;28;20036;-85
2021/05/04 13:02:23;;;;;;;10.77;2.13;;;12.50;71.70;;;;;;5033603;28;20025;-86